Time;durP1;ratioP1;P1;durP2;ratioP2;P2;SDS_P1;SDS_P2;PMS_P1;PMS_P2;Temp;Humidity;BMP_temperature;BMP_pressure;BME280_temperature;BME280_humidity;BME280_pressure;Samples;Min_cycle;Max_cycle;Signal;HPM_P1;HPM_P2
2022/11/15 00:00:10;;;;;;;5.90;3.90;;;;;;;11.06;63.15;96520.38;6224287;23;20121;-81
2022/11/15 00:02:40;;;;;;;3.80;2.83;;;;;;;11.08;62.80;96518.38;6220206;23;20028;-81
2022/11/15 00:05:09;;;;;;;2.45;2.25;;;;;;;11.13;62.53;96520.44;6219756;23;20020;-81
2022/11/15 00:07:39;;;;;;;3.28;2.35;;;;;;;11.16;62.50;96508.81;6219050;23;20021;-81
2022/11/15 00:10:23;;;;;;;4.57;2.63;;;;;;;11.20;61.75;96510.84;6219373;23;20017;-81
2022/11/15 00:12:52;;;;;;;3.22;2.35;;;;;;;11.25;61.94;96510.28;6218940;23;20012;-82
2022/11/15 00:15:21;;;;;;;2.88;2.35;;;;;;;11.30;62.23;96510.53;6218984;23;20025;-81
2022/11/15 00:17:51;;;;;;;5.47;2.88;;;;;;;11.33;61.32;96512.78;6218626;23;20013;-81
2022/11/15 00:20:21;;;;;;;5.32;2.38;;;;;;;11.35;61.23;96513.41;6220169;23;20017;-81
2022/11/15 00:22:50;;;;;;;4.93;2.47;;;;;;;11.36;61.17;96508.97;6220288;23;20398;-81
2022/11/15 00:25:19;;;;;;;4.10;2.22;;;;;;;11.36;61.18;96515.00;6218768;23;20075;-80
2022/11/15 00:27:48;;;;;;;2.45;1.92;;;;;;;11.36;61.13;96509.78;6220134;23;20493;-81
2022/11/15 00:30:17;;;;;;;2.88;2.08;;;;;;;11.34;61.19;96503.94;6219655;23;20027;-81
2022/11/15 00:32:46;;;;;;;2.80;2.33;;;;;;;11.31;61.34;96501.72;6221003;23;20028;-81
2022/11/15 00:35:25;;;;;;;3.45;2.03;;;;;;;11.28;61.33;96502.91;6219501;23;20041;-81
2022/11/15 00:37:59;;;;;;;3.88;2.50;;;;;;;11.24;61.45;96504.28;6219607;23;20020;-82
2022/11/15 00:40:28;;;;;;;3.45;2.30;;;;;;;11.20;61.51;96495.19;6219459;23;20027;-81
2022/11/15 00:42:56;;;;;;;3.35;2.38;;;;;;;11.20;61.67;96494.41;6219601;23;20024;-81
2022/11/15 00:45:26;;;;;;;2.95;2.00;;;;;;;11.18;61.58;96488.53;6219675;23;20020;-80
2022/11/15 00:47:56;;;;;;;4.95;2.03;;;;;;;11.17;61.52;96492.13;6219525;23;20020;-81
2022/11/15 00:50:24;;;;;;;3.40;2.28;;;;;;;11.15;61.46;96484.50;6218700;23;20095;-81
2022/11/15 00:52:53;;;;;;;4.55;2.58;;;;;;;11.16;61.53;96482.72;6219404;23;20063;-81
2022/11/15 00:55:24;;;;;;;3.45;2.15;;;;;;;11.12;61.51;96485.69;6218792;23;20016;-81
2022/11/15 00:57:53;;;;;;;3.58;2.08;;;;;;;11.12;61.55;96479.66;6220019;23;20082;-80
2022/11/15 01:00:22;;;;;;;3.33;2.13;;;;;;;11.08;61.52;96473.19;6242489;23;20017;-80
2022/11/15 01:02:51;;;;;;;2.85;2.15;;;;;;;11.06;61.67;96473.41;6243250;23;20020;-82
2022/11/15 01:05:23;;;;;;;5.45;2.03;;;;;;;11.05;61.67;96469.16;6241345;23;20020;-81
2022/11/15 01:07:55;;;;;;;4.45;2.47;;;;;;;11.04;61.84;96471.94;6220488;23;20075;-81
2022/11/15 01:10:25;;;;;;;;;;;;;;;11.03;61.63;96468.53;6220035;23;20067;-81
2022/11/15 01:12:54;;;;;;;4.03;2.00;;;;;;;11.02;61.56;96460.88;6218932;23;19962;-81
2022/11/15 01:15:23;;;;;;;3.13;2.08;;;;;;;11.02;61.77;96460.88;6218552;23;20023;-82
2022/11/15 01:17:52;;;;;;;5.03;2.05;;;;;;;11.04;61.89;96459.72;6218499;23;20025;-80
2022/11/15 01:20:21;;;;;;;3.72;2.05;;;;;;;11.07;61.72;96458.53;6219022;23;20024;-81
2022/11/15 01:22:50;;;;;;;2.25;2.00;;;;;;;11.08;61.50;96460.13;6218911;23;20012;-81
2022/11/15 01:25:24;;;;;;;2.85;1.65;;;;;;;11.08;61.54;96452.31;6218921;23;20028;-81
2022/11/15 01:27:54;;;;;;;4.05;2.20;;;;;;;11.09;61.49;96459.16;6218807;23;20099;-80
2022/11/15 01:30:23;;;;;;;2.42;2.20;;;;;;;11.10;61.61;96458.94;6218414;23;20016;-81
2022/11/15 01:32:52;;;;;;;3.13;1.80;;;;;;;11.13;61.55;96452.56;6219010;23;20040;-81
2022/11/15 01:35:21;;;;;;;6.43;2.33;;;;;;;11.14;61.43;96449.75;6218567;23;20016;-81
2022/11/15 01:37:50;;;;;;;2.22;2.00;;;;;;;11.17;61.50;96447.75;6218641;23;20025;-81
2022/11/15 01:40:19;;;;;;;3.72;1.95;;;;;;;11.20;61.22;96444.78;6218512;23;20016;-81
2022/11/15 01:42:48;;;;;;;2.15;1.83;;;;;;;11.23;61.26;96447.00;6218436;23;20012;-81
2022/11/15 01:45:18;;;;;;;2.83;1.83;;;;;;;11.25;61.16;96442.41;6219526;23;20032;-80
2022/11/15 01:47:53;;;;;;;3.88;2.13;;;;;;;11.26;61.35;96446.63;6219135;23;20096;-81
2022/11/15 01:50:26;;;;;;;4.43;1.75;;;;;;;11.28;61.11;96442.00;6220178;23;20017;-81
2022/11/15 01:52:55;;;;;;;2.50;1.92;;;;;;;11.29;60.99;96435.81;6220515;23;20044;-81
2022/11/15 01:55:29;;;;;;;3.75;2.17;;;;;;;11.29;60.91;96430.59;6220482;23;20023;-81
2022/11/15 01:58:01;;;;;;;9.23;2.30;;;;;;;11.29;60.78;96436.59;6219696;23;20453;-81
2022/11/15 02:00:33;;;;;;;3.33;2.17;;;;;;;11.32;60.73;96430.19;6219755;23;20476;-81
2022/11/15 02:03:03;;;;;;;4.65;2.67;;;;;;;11.33;60.61;96429.22;6221070;23;20024;-81
2022/11/15 02:05:32;;;;;;;3.15;1.90;;;;;;;11.30;60.74;96424.34;6220817;23;20016;-81
2022/11/15 02:08:02;;;;;;;3.75;1.85;;;;;;;11.31;60.73;96418.94;6228442;23;20024;-81
2022/11/15 02:10:31;;;;;;;4.28;2.17;;;;;;;11.33;60.83;96416.16;6244330;22;20011;-82
2022/11/15 02:13:02;;;;;;;3.50;2.00;;;;;;;11.31;60.81;96425.97;6244488;22;20076;-81
2022/11/15 02:15:41;;;;;;;3.70;2.20;;;;;;;11.29;60.66;96415.72;6229494;23;20016;-80
2022/11/15 02:18:18;;;;;;;3.92;1.90;;;;;;;11.29;60.78;96414.91;6222649;23;20020;-81
2022/11/15 02:21:04;;;;;;;2.47;2.00;;;;;;;11.29;60.71;96412.31;6221585;23;20021;-81
2022/11/15 02:23:58;;;;;;;3.80;1.52;;;;;;;11.31;60.90;96407.72;6222575;23;20024;-81
2022/11/15 02:26:59;;;;;;;5.25;1.90;;;;;;;11.33;60.40;96410.94;6221141;23;20016;-81
2022/11/15 02:29:43;;;;;;;4.45;2.13;;;;;;;11.33;60.31;96403.09;6222496;23;20024;-81
2022/11/15 02:32:20;;;;;;;3.50;2.20;;;;;;;11.28;60.24;96395.84;6223862;23;20403;-81
2022/11/15 02:34:56;;;;;;;3.80;1.67;;;;;;;11.28;60.03;96397.63;6220601;23;20020;-81
2022/11/15 02:37:33;;;;;;;3.72;2.00;;;;;;;11.25;60.27;96392.78;6221044;23;20021;-80
2022/11/15 02:40:10;;;;;;;4.05;2.15;;;;;;;11.24;60.36;96393.78;6220516;23;20020;-81
2022/11/15 02:45:41;;;;;;;4.13;2.15;;;;;;;11.21;60.00;96386.34;6220425;23;20035;-81
2022/11/15 02:48:13;;;;;;;3.38;2.40;;;;;;;11.21;59.98;96383.72;6220114;23;20017;-81
2022/11/15 02:50:43;;;;;;;2.45;1.73;;;;;;;11.19;59.94;96385.72;6221515;23;20071;-81
2022/11/15 02:53:13;;;;;;;3.08;2.10;;;;;;;11.20;60.00;96379.50;6220972;23;20023;-81
2022/11/15 02:55:48;;;;;;;3.47;2.50;;;;;;;11.18;59.94;96384.91;6220328;23;20024;-80
2022/11/15 02:58:34;;;;;;;4.18;2.15;;;;;;;11.16;60.12;96383.50;6221582;23;20441;-81
2022/11/15 03:01:10;;;;;;;3.40;2.53;;;;;;;11.12;60.42;96381.25;6221314;23;20051;-81
2022/11/15 03:03:54;;;;;;;3.35;2.50;;;;;;;11.06;60.59;96383.81;6221086;23;20021;-80
2022/11/15 03:06:34;;;;;;;3.70;2.88;;;;;;;10.96;61.00;96376.34;6219251;23;20037;-81
2022/11/15 03:09:09;;;;;;;2.85;2.58;;;;;;;10.87;61.24;96380.09;6223019;23;20020;-81
2022/11/15 03:11:42;;;;;;;6.25;2.90;;;;;;;10.78;61.25;96373.34;6243200;23;20039;-82
2022/11/15 03:14:22;;;;;;;3.42;3.13;;;;;;;10.65;61.89;96379.28;6244255;23;20001;-81
2022/11/15 03:16:59;;;;;;;5.13;3.53;;;;;;;10.49;62.25;96369.91;6240722;23;20021;-81
2022/11/15 03:19:35;;;;;;;7.35;3.70;;;;;;;10.36;62.59;96370.59;6222688;23;20349;-81
2022/11/15 03:22:08;;;;;;;14.52;3.78;;;;;;;10.29;62.81;96373.13;6222159;23;20020;-81
2022/11/15 03:24:39;;;;;;;4.18;3.65;;;;;;;10.23;63.21;96379.06;6216453;22;20020;-78
2022/11/15 03:27:08;;;;;;;6.55;4.72;;;;;;;10.20;63.44;96366.38;6215222;23;20352;-79
2022/11/15 03:29:39;;;;;;;7.45;4.80;;;;;;;10.15;63.89;96363.53;6213924;23;20020;-78
2022/11/15 03:32:12;;;;;;;8.45;4.97;;;;;;;10.11;64.11;96370.09;6215070;23;20029;-78
2022/11/15 03:34:45;;;;;;;7.03;5.18;;;;;;;10.07;64.32;96371.47;6214627;23;20020;-79
2022/11/15 03:37:15;;;;;;;9.55;4.93;;;;;;;10.02;64.32;96368.59;6215085;23;20020;-78
2022/11/15 03:39:43;;;;;;;7.38;4.95;;;;;;;10.01;64.46;96359.97;6214698;23;20031;-79
2022/11/15 03:42:22;;;;;;;8.25;5.10;;;;;;;9.99;65.09;96359.38;6214781;23;20020;-78
2022/11/15 03:44:56;;;;;;;8.57;5.70;;;;;;;10.00;65.07;96367.97;6214839;23;20017;-78
2022/11/15 03:47:28;;;;;;;8.98;5.70;;;;;;;9.99;65.15;96358.53;6215277;23;20020;-78
2022/11/15 03:50:03;;;;;;;9.88;5.30;;;;;;;9.97;65.45;96363.94;6214597;23;20020;-78
2022/11/15 03:52:34;;;;;;;12.23;6.88;;;;;;;9.96;65.39;96361.53;6218765;23;20020;-79
2022/11/15 03:55:04;;;;;;;10.53;6.43;;;;;;;9.96;65.36;96364.13;6218948;23;20031;-79
2022/11/15 03:57:32;;;;;;;11.90;6.38;;;;;;;9.93;65.79;96356.66;6216691;23;20232;-79
2022/11/15 04:00:00;;;;;;;13.60;6.68;;;;;;;9.91;65.60;96359.47;6214245;23;20027;-79
2022/11/15 04:02:28;;;;;;;9.88;6.15;;;;;;;9.87;65.74;96359.00;6214898;23;20274;-79
2022/11/15 04:04:55;;;;;;;8.00;6.70;;;;;;;9.85;65.81;96355.78;6214805;23;20027;-79
2022/11/15 04:07:24;;;;;;;9.88;6.13;;;;;;;9.82;65.86;96356.16;6214915;23;20043;-79
2022/11/15 04:10:05;;;;;;;8.00;6.25;;;;;;;9.78;65.92;96354.91;6213840;23;20476;-79
2022/11/15 04:12:34;;;;;;;12.02;6.45;;;;;;;9.73;66.22;96340.81;6227161;23;20020;-79
2022/11/15 04:15:09;;;;;;;10.35;7.32;;;;;;;9.67;66.41;96352.78;6230853;23;20047;-78
2022/11/15 04:17:40;;;;;;;11.10;6.75;;;;;;;9.64;66.71;96348.75;6217550;23;20356;-78
2022/11/15 04:25:45;;;;;;;16.67;10.23;;;;;;;9.49;67.24;96334.94;6214386;23;20016;-78
2022/11/15 04:28:12;;;;;;;13.48;7.45;;;;;;;9.46;66.91;96340.47;6214640;23;20021;-78
2022/11/15 04:30:40;;;;;;;9.73;7.05;;;;;;;9.42;67.19;96342.66;6214314;23;20056;-78
2022/11/15 04:33:07;;;;;;;11.20;7.03;;;;;;;9.37;67.22;96347.56;6212449;23;20017;-78
2022/11/15 04:35:35;;;;;;;10.63;7.40;;;;;;;9.33;67.22;96341.13;6212333;23;20031;-79
2022/11/15 04:38:06;;;;;;;9.20;6.85;;;;;;;9.30;67.53;96340.69;6212062;23;20025;-78
2022/11/15 04:40:34;;;;;;;11.77;7.47;;;;;;;9.29;67.23;96345.06;6212540;23;20025;-79
2022/11/15 04:43:01;;;;;;;11.43;7.38;;;;;;;9.24;67.44;96342.19;6212555;23;20330;-78
2022/11/15 04:45:31;;;;;;;9.32;7.38;;;;;;;9.20;67.70;96336.53;6212326;23;20032;-78
2022/11/15 04:47:58;;;;;;;12.73;8.15;;;;;;;9.16;67.73;96321.47;6213463;23;20027;-79
2022/11/15 04:50:26;;;;;;;9.77;7.40;;;;;;;9.13;67.95;96327.03;6214739;23;20020;-78
2022/11/15 04:52:55;;;;;;;10.73;7.22;;;;;;;9.10;67.81;96319.59;6214680;23;20024;-79
2022/11/15 04:55:23;;;;;;;11.57;8.68;;;;;;;9.07;67.79;96326.78;6214627;23;20031;-79
2022/11/15 04:57:59;;;;;;;9.88;7.95;;;;;;;9.05;68.23;96323.53;6213957;23;20037;-79
2022/11/15 05:00:28;;;;;;;9.35;7.47;;;;;;;9.05;68.07;96323.53;6214297;23;20474;-78
2022/11/15 05:05:41;;;;;;;11.77;8.80;;;;;;;9.09;67.71;96316.16;6214566;23;20032;-79
2022/11/15 05:08:09;;;;;;;12.10;9.18;;;;;;;9.12;67.59;96312.41;6213814;23;20036;-79
2022/11/15 05:10:38;;;;;;;13.30;8.88;;;;;;;9.15;67.54;96314.66;6214641;23;20075;-79
2022/11/15 05:13:05;;;;;;;13.40;8.68;;;;;;;9.16;67.50;96313.66;6214212;23;20027;-78
2022/11/15 05:15:33;;;;;;;12.70;7.95;;;;;;;9.17;67.30;96308.28;6214558;23;20021;-78
2022/11/15 05:18:00;;;;;;;13.27;7.72;;;;;;;9.19;67.22;96302.91;6213716;23;20027;-78
2022/11/15 05:20:28;;;;;;;12.23;8.35;;;;;;;9.16;67.28;96308.44;6214559;23;20035;-79
2022/11/15 05:22:56;;;;;;;11.95;7.85;;;;;;;9.16;67.10;96303.25;6214216;23;20021;-79
2022/11/15 05:25:23;;;;;;;11.77;7.97;;;;;;;9.18;67.19;96309.06;6214506;23;20021;-79
2022/11/15 05:27:53;;;;;;;10.35;7.88;;;;;;;9.18;66.88;96306.47;6216152;23;20023;-79
2022/11/15 05:30:20;;;;;;;11.43;7.63;;;;;;;9.14;66.83;96300.84;6216429;23;20021;-79
2022/11/15 05:32:48;;;;;;;14.88;8.68;;;;;;;9.11;66.98;96302.97;6216531;23;20024;-79
2022/11/15 05:35:22;;;;;;;12.10;7.70;;;;;;;9.11;67.19;96302.97;6215949;23;20032;-79
2022/11/15 05:37:50;;;;;;;13.30;8.20;;;;;;;9.13;67.17;96303.63;6215597;23;20452;-79
2022/11/15 05:40:17;;;;;;;9.90;8.02;;;;;;;9.17;67.25;96300.47;6216190;23;20031;-79
2022/11/15 05:42:46;;;;;;;11.18;8.32;;;;;;;9.21;67.01;96290.53;6216091;23;20330;-79
2022/11/15 05:45:16;;;;;;;11.63;7.55;;;;;;;9.22;66.84;96297.31;6215791;23;20025;-78
2022/11/15 05:47:48;;;;;;;14.80;8.60;;;;;;;9.22;66.66;96289.50;6216614;23;20023;-79
2022/11/15 05:50:19;;;;;;;12.48;8.13;;;;;;;9.20;66.95;96289.69;6216176;23;20368;-79
2022/11/15 05:52:47;;;;;;;11.05;7.57;;;;;;;9.20;66.78;96289.69;6216297;23;20072;-79
2022/11/15 05:55:16;;;;;;;9.35;7.60;;;;;;;9.21;66.93;96287.91;6216002;23;20099;-79
2022/11/15 05:57:43;;;;;;;8.95;7.00;;;;;;;9.22;66.83;96282.50;6215680;23;20519;-78
2022/11/15 06:00:12;;;;;;;9.63;7.18;;;;;;;9.23;66.61;96278.13;6215988;23;20028;-78
2022/11/15 06:02:41;;;;;;;11.07;6.88;;;;;;;9.22;66.67;96281.72;6217079;23;20024;-79
2022/11/15 06:05:08;;;;;;;9.95;6.93;;;;;;;9.21;66.60;96275.69;6216381;23;20031;-78
2022/11/15 06:07:36;;;;;;;9.02;7.07;;;;;;;9.20;66.68;96284.47;6216455;23;20413;-78
2022/11/15 06:10:04;;;;;;;9.68;7.40;;;;;;;9.21;66.58;96278.31;6215980;23;20103;-78
2022/11/15 06:12:32;;;;;;;13.82;8.73;;;;;;;9.22;66.48;96276.50;6215979;23;20028;-78
2022/11/15 06:14:59;;;;;;;10.57;7.40;;;;;;;9.22;66.25;96284.31;6215948;23;20027;-78
2022/11/15 06:17:28;;;;;;;10.88;7.68;;;;;;;9.19;66.15;96282.09;6216058;23;20402;-77
2022/11/15 06:19:56;;;;;;;9.05;7.72;;;;;;;9.20;66.12;96283.69;6214995;23;20066;-78
2022/11/15 06:22:24;;;;;;;8.43;6.63;;;;;;;9.19;65.96;96288.09;6215494;23;20029;-80
2022/11/15 06:24:53;;;;;;;10.43;7.15;;;;;;;9.18;65.95;96296.91;6223087;23;20012;-82
2022/11/15 06:27:22;;;;;;;9.15;6.95;;;;;;;9.17;65.86;96297.88;6228410;23;20048;-81
2022/11/15 06:39:20;;;;;;;9.73;6.75;;;;;;;9.16;66.20;96301.47;6162002;23;20076;-81
2022/11/15 06:44:33;;;;;;;11.07;6.82;;;;;;;9.16;65.76;96298.03;6221783;22;20528;-81
2022/11/15 06:47:01;;;;;;;7.95;6.85;;;;;;;9.15;65.66;96299.84;6225087;23;20025;-80
2022/11/15 06:49:29;;;;;;;9.23;6.82;;;;;;;9.15;65.56;96312.06;6219494;23;20020;-80
2022/11/15 07:08:17;;;;;;;7.25;5.78;;;;;;;9.15;65.13;96299.84;6213805;23;20009;-81
2022/11/15 07:10:46;;;;;;;8.57;6.40;;;;;;;9.17;65.25;96300.47;6210251;23;20080;-81
2022/11/15 07:13:15;;;;;;;8.70;5.60;;;;;;;9.20;64.98;96304.50;6202430;23;20021;-81
2022/11/15 07:15:45;;;;;;;7.95;5.00;;;;;;;9.21;64.86;96301.72;6174741;23;20026;-81
2022/11/15 07:18:16;;;;;;;9.50;5.60;;;;;;;9.23;64.56;96298.97;6168667;23;20008;-81
2022/11/15 07:20:46;;;;;;;9.75;5.80;;;;;;;9.24;64.65;96293.56;6169647;23;20025;-81
2022/11/15 07:23:16;;;;;;;7.60;5.75;;;;;;;9.28;64.40;96296.59;6162460;23;20068;-81
2022/11/15 07:25:44;;;;;;;9.48;6.63;;;;;;;9.32;64.03;96297.06;6161553;23;20064;-81
2022/11/15 07:28:13;;;;;;;6.40;5.32;;;;;;;9.31;64.27;96298.84;6169774;23;20477;-81
2022/11/15 08:42:20;;;;;;;6.43;4.70;;;;;;;10.68;60.62;96210.16;6217693;22;20055;-81
2022/11/15 08:50:33;;;;;;;7.43;4.85;;;;;;;11.12;59.71;96222.00;6220146;22;20039;-81
2022/11/15 08:59:20;;;;;;;9.07;4.70;;;;;;;11.64;58.31;96222.41;6220125;22;20095;-81
2022/11/15 09:01:49;;;;;;;6.20;4.22;;;;;;;11.80;57.67;96223.84;6221319;23;20330;-80
2022/11/15 09:04:19;;;;;;;6.07;3.55;;;;;;;11.98;56.89;96219.88;6222027;23;20036;-80
2022/11/15 09:06:53;;;;;;;5.88;3.83;;;;;;;12.16;55.95;96214.88;6223906;23;20020;-81
2022/11/15 09:09:22;;;;;;;;;;;;;;;12.36;56.49;96214.88;6232723;22;20329;-80
2022/11/15 09:12:01;;;;;;;5.18;3.70;;;;;;;12.53;55.02;96212.66;6233709;23;19915;-81
2022/11/15 09:15:12;;;;;;;6.68;3.65;;;;;;;12.74;54.37;96208.97;6230574;23;20031;-80
2022/11/15 09:17:42;;;;;;;5.55;3.42;;;;;;;12.93;54.60;96196.84;6232024;23;20026;-80
2022/11/15 09:20:17;;;;;;;8.10;4.30;;;;;;;13.13;53.16;96191.53;6224027;23;20072;-80
2022/11/15 09:26:02;;;;;;;6.10;3.75;;;;;;;13.64;52.60;96187.28;6229953;22;20027;-78
2022/11/15 10:29:50;;;;;;;3.20;2.42;;;;;;;16.52;44.18;96142.47;6145797;23;20026;-81
2022/11/15 10:36:25;;;;;;;2.72;2.20;;;;;;;16.39;44.40;96119.81;6052390;23;20031;-81
2022/11/15 10:53:28;;;;;;;3.85;2.55;;;;;;;16.13;42.89;96094.78;6061649;23;20039;-81
2022/11/15 10:56:18;;;;;;;4.05;1.90;;;;;;;16.10;41.96;96084.72;6071997;23;20082;-81
2022/11/15 10:58:59;;;;;;;5.30;3.30;;;;;;;16.05;42.07;96088.03;6079227;23;20030;-81
2022/11/15 11:05:04;;;;;;;3.28;2.72;;;;;;;16.05;42.56;96097.75;6003364;23;20449;-80
2022/11/15 12:10:50;;;;;;;4.85;2.03;;;;;;;16.31;43.22;96053.56;6214375;22;20360;-83
2022/11/15 12:13:48;;;;;;;2.05;1.77;;;;;;;16.34;42.69;96043.38;6077278;23;20007;-83
2022/11/15 12:20:34;;;;;;;2.78;1.67;;;;;;;16.35;41.23;96044.97;6232413;22;20051;-81
2022/11/15 12:24:00;;;;;;;2.40;1.35;;;;;;;16.36;41.48;96046.59;6238953;22;20012;-81
2022/11/15 12:26:52;;;;;;;2.28;1.60;;;;;;;16.36;40.42;96043.97;6235847;23;20027;-81
2022/11/15 12:29:40;;;;;;;2.20;1.60;;;;;;;16.34;40.14;96037.34;6242926;22;20019;-82
2022/11/15 12:36:03;;;;;;;11.02;2.35;;;;;;;16.33;40.73;96038.34;6210935;23;20055;-80
2022/11/15 12:39:12;;;;;;;4.55;1.80;;;;;;;16.35;41.63;96038.91;6238121;23;20021;-81
2022/11/15 12:42:40;;;;;;;2.67;1.52;;;;;;;16.35;41.36;96039.72;6235136;23;20031;-81
2022/11/15 12:45:42;;;;;;;3.67;1.50;;;;;;;16.36;40.37;96022.13;6242126;22;20011;-81
2022/11/15 12:49:00;;;;;;;1.48;1.27;;;;;;;16.35;41.56;96013.38;6239913;23;20008;-81
2022/11/15 12:52:13;;;;;;;2.13;1.50;;;;;;;16.38;40.40;96012.94;6238459;23;20078;-80
2022/11/15 12:55:22;;;;;;;4.53;1.45;;;;;;;16.38;39.54;96012.94;6239773;23;20023;-81
2022/11/15 14:02:37;;;;;;;2.55;1.75;;;;;;;16.08;42.28;95973.66;6225038;22;20014;-81
2022/11/15 14:30:52;;;;;;;7.03;5.32;;;;;;;15.61;43.77;95911.38;6233914;23;20017;-81
2022/11/15 14:34:21;;;;;;;10.35;7.43;;;;;;;15.54;44.15;95913.28;6237818;23;20028;-82
2022/11/15 15:03:20;;;;;;;8.40;6.35;;;;;;;15.02;45.08;95894.78;6059938;23;20026;-81
2022/11/15 15:06:09;;;;;;;10.93;7.18;;;;;;;14.97;45.13;95894.66;6049004;23;20274;-81
2022/11/15 15:27:51;;;;;;;3.88;2.47;;;;;;;14.27;47.93;95861.94;6212444;22;20092;-80
2022/11/15 15:30:19;;;;;;;3.42;2.28;;;;;;;14.16;48.43;95854.81;6214807;23;20020;-80
2022/11/15 15:32:47;;;;;;;6.30;2.60;;;;;;;14.04;48.81;95852.16;6214552;23;20031;-79
2022/11/15 15:35:15;;;;;;;2.53;2.33;;;;;;;13.96;49.03;95857.72;6214628;23;20321;-79
2022/11/15 15:37:44;;;;;;;3.10;2.17;;;;;;;13.92;49.35;95859.97;6214616;23;20028;-79
2022/11/15 15:40:16;;;;;;;9.25;3.33;;;;;;;13.90;49.55;95862.00;6213957;23;20397;-78
2022/11/15 15:42:44;;;;;;;7.63;3.72;;;;;;;13.89;49.57;95855.16;6214011;23;20069;-79
2022/11/15 15:45:12;;;;;;;6.63;3.78;;;;;;;13.88;50.01;95855.38;6212700;23;20020;-79
2022/11/15 15:47:40;;;;;;;5.55;3.55;;;;;;;13.87;50.09;95856.41;6220660;23;20468;-80
2022/11/15 15:50:23;;;;;;;4.95;3.58;;;;;;;13.84;50.38;95860.28;6219004;23;20026;-80
2022/11/15 15:52:51;;;;;;;4.85;3.50;;;;;;;13.80;50.41;95853.88;6215208;23;20452;-79
2022/11/15 15:55:21;;;;;;;6.57;3.85;;;;;;;13.73;51.18;95851.34;6214864;23;20028;-80
2022/11/15 15:57:49;;;;;;;7.53;3.28;;;;;;;13.65;51.16;95842.97;6215057;23;20023;-80
2022/11/15 16:00:18;;;;;;;4.93;3.55;;;;;;;13.58;51.90;95837.81;6216541;23;20099;-75
2022/11/15 16:02:46;;;;;;;7.90;4.43;;;;;;;13.52;52.05;95834.22;6214919;23;20029;-79
2022/11/15 16:05:14;;;;;;;5.93;4.60;;;;;;;13.47;52.17;95831.47;6214990;23;20016;-79
2022/11/15 16:07:42;;;;;;;6.25;4.70;;;;;;;13.43;52.54;95827.69;6214244;23;20027;-79
2022/11/15 16:10:20;;;;;;;8.35;5.75;;;;;;;13.37;53.25;95831.16;6214119;23;20020;-79
2022/11/15 16:12:49;;;;;;;7.75;5.28;;;;;;;13.30;53.18;95822.59;6213439;23;20062;-79
2022/11/15 16:15:17;;;;;;;8.20;5.90;;;;;;;13.22;53.51;95822.84;6214759;23;20031;-80
2022/11/15 16:17:48;;;;;;;10.45;6.82;;;;;;;13.16;53.90;95822.69;6213391;23;20043;-79
2022/11/15 16:20:32;;;;;;;8.07;6.80;;;;;;;13.12;54.50;95818.91;6214281;23;20017;-79
2022/11/15 16:23:00;;;;;;;10.23;7.68;;;;;;;13.09;54.37;95810.66;6214328;23;20020;-79
2022/11/15 16:25:40;;;;;;;10.40;7.38;;;;;;;13.07;54.98;95820.56;6213556;23;20457;-79
2022/11/15 16:28:17;;;;;;;12.18;6.72;;;;;;;13.03;55.28;95816.75;6213576;23;20043;-79
2022/11/15 16:30:45;;;;;;;9.95;6.15;;;;;;;13.01;55.28;95809.16;6214072;23;20024;-78
2022/11/15 16:33:13;;;;;;;7.35;6.13;;;;;;;12.98;55.57;95812.19;6214429;23;20028;-79
2022/11/15 16:35:40;;;;;;;7.25;6.20;;;;;;;12.95;55.72;95802.94;6213753;23;20464;-78
2022/11/15 16:38:15;;;;;;;10.38;6.82;;;;;;;12.93;56.28;95802.38;6214013;23;20029;-79
2022/11/15 16:40:43;;;;;;;9.00;6.47;;;;;;;12.88;56.10;95802.22;6213959;23;20031;-79
2022/11/15 16:43:10;;;;;;;10.27;6.88;;;;;;;12.84;56.27;95800.25;6214096;23;20111;-78
2022/11/15 16:45:39;;;;;;;8.50;7.50;;;;;;;12.81;56.64;95803.28;6214167;23;20024;-79
2022/11/15 16:48:07;;;;;;;11.95;8.32;;;;;;;12.74;56.51;95801.50;6214181;23;20024;-79
2022/11/15 16:50:39;;;;;;;11.05;8.00;;;;;;;12.69;56.80;95805.81;6214153;23;20025;-79
2022/11/15 16:53:07;;;;;;;7.97;6.40;;;;;;;12.65;56.87;95799.41;6213910;23;20024;-78
2022/11/15 16:55:35;;;;;;;10.20;7.35;;;;;;;12.61;57.01;95796.41;6213338;23;20016;-78
2022/11/15 16:58:02;;;;;;;10.98;8.18;;;;;;;12.60;56.95;95794.00;6214452;23;20032;-79
2022/11/15 17:00:30;;;;;;;11.80;8.30;;;;;;;12.57;56.96;95795.22;6216191;23;20061;-80
2022/11/15 17:02:59;;;;;;;11.27;8.27;;;;;;;12.54;57.23;95791.22;6215854;23;20420;-79
2022/11/15 17:05:27;;;;;;;11.43;8.90;;;;;;;12.51;57.11;95793.47;6223181;23;20472;-81
2022/11/15 17:14:09;;;;;;;9.38;7.60;;;;;;;12.39;57.16;95782.09;6163576;23;20031;-81
2022/11/15 17:16:41;;;;;;;12.10;7.63;;;;;;;12.37;57.25;95771.84;6227109;22;20051;-80
2022/11/15 17:19:14;;;;;;;12.87;8.10;;;;;;;12.31;57.67;95776.13;6245607;23;20020;-80
2022/11/15 17:21:45;;;;;;;9.88;6.95;;;;;;;12.28;57.62;95776.53;6246292;23;20020;-80
2022/11/15 17:24:13;;;;;;;11.73;8.23;;;;;;;12.26;57.71;95778.56;6246876;23;20074;-80
2022/11/15 17:26:41;;;;;;;10.20;7.10;;;;;;;12.25;57.72;95781.41;6235916;23;20040;-80
2022/11/15 17:29:09;;;;;;;10.20;8.25;;;;;;;12.20;57.73;95774.19;6216436;23;20523;-80
2022/11/15 17:31:38;;;;;;;10.23;8.40;;;;;;;12.21;57.76;95777.59;6217073;23;20468;-80
2022/11/15 17:34:07;;;;;;;12.63;8.25;;;;;;;12.19;58.02;95772.56;6217283;23;20047;-80
2022/11/15 17:36:37;;;;;;;11.75;8.27;;;;;;;12.17;58.00;95779.81;6216591;23;20099;-80
2022/11/15 17:39:07;;;;;;;11.02;8.13;;;;;;;12.13;58.07;95774.25;6216577;23;20020;-80
2022/11/15 17:41:43;;;;;;;11.82;8.82;;;;;;;12.11;58.43;95773.66;6216277;23;20024;-80
2022/11/15 17:44:25;;;;;;;10.40;8.18;;;;;;;12.09;58.35;95769.63;6217161;23;20103;-80
2022/11/15 17:46:55;;;;;;;10.77;8.15;;;;;;;12.07;58.22;95766.41;6213941;23;20047;-80
2022/11/15 17:49:24;;;;;;;10.90;7.38;;;;;;;12.05;59.83;95756.19;6216980;23;20095;-81
2022/11/15 17:51:53;;;;;;;12.98;8.45;;;;;;;12.05;58.95;95750.97;6217328;23;20027;-80
2022/11/15 17:54:21;;;;;;;12.63;8.38;;;;;;;12.01;58.93;95747.16;6214608;23;20025;-80
2022/11/15 17:56:48;;;;;;;12.90;9.23;;;;;;;12.00;58.89;95749.97;6214807;23;20032;-80
2022/11/15 17:59:16;;;;;;;10.98;8.32;;;;;;;11.96;58.89;95739.16;6214234;23;20031;-79
2022/11/15 18:01:48;;;;;;;9.82;8.48;;;;;;;11.91;59.10;95737.16;6214640;23;20070;-80
2022/11/15 18:04:15;;;;;;;10.43;8.07;;;;;;;11.85;59.31;95735.38;6215312;23;20017;-80
2022/11/15 18:06:43;;;;;;;12.57;8.57;;;;;;;11.81;59.50;95734.19;6218611;23;20020;-81
2022/11/15 18:09:12;;;;;;;11.90;8.55;;;;;;;11.78;59.91;95737.22;6214784;23;20474;-81
2022/11/15 18:11:42;;;;;;;9.60;8.60;;;;;;;11.77;59.89;95735.63;6216434;23;20361;-81
2022/11/15 18:14:13;;;;;;;15.35;8.38;;;;;;;11.74;60.30;95738.63;6216156;23;20028;-80
2022/11/15 18:16:42;;;;;;;13.90;9.63;;;;;;;11.73;60.03;95731.81;6215553;23;20091;-80
2022/11/15 18:19:12;;;;;;;9.45;8.35;;;;;;;11.72;60.23;95730.25;6213759;23;20234;-80
2022/11/15 18:21:55;;;;;;;11.13;8.73;;;;;;;11.73;60.28;95726.59;6214314;23;20095;-80
2022/11/15 18:24:26;;;;;;;11.32;8.20;;;;;;;11.74;60.47;95722.97;6214123;23;20477;-80
2022/11/15 18:26:55;;;;;;;12.75;8.85;;;;;;;11.73;60.45;95718.75;6213963;23;20021;-79
2022/11/15 18:29:24;;;;;;;12.23;8.52;;;;;;;11.73;60.57;95710.94;6213891;23;20370;-80
2022/11/15 18:31:54;;;;;;;13.13;8.02;;;;;;;11.71;60.35;95707.72;6213994;23;20031;-80
2022/11/15 18:34:23;;;;;;;11.00;7.78;;;;;;;11.70;60.39;95711.38;6214484;23;20399;-80
2022/11/15 18:36:52;;;;;;;10.70;8.07;;;;;;;11.70;60.51;95711.38;6218634;23;20021;-80
2022/11/15 18:39:20;;;;;;;17.15;9.85;;;;;;;11.70;60.40;95706.94;6228841;23;20352;-79
2022/11/15 18:41:49;;;;;;;11.13;8.65;;;;;;;11.70;60.36;95711.38;6223684;23;20028;-80
2022/11/15 18:44:17;;;;;;;12.18;9.02;;;;;;;11.68;60.42;95708.16;6214688;23;20030;-79
2022/11/15 18:46:47;;;;;;;14.73;10.15;;;;;;;11.68;60.39;95708.16;6214561;23;20042;-80
2022/11/15 18:49:16;;;;;;;11.65;8.13;;;;;;;11.65;60.44;95706.75;6219267;23;20031;-81
2022/11/15 18:51:46;;;;;;;13.85;9.07;;;;;;;11.64;60.40;95701.75;6222378;23;20044;-79
2022/11/15 18:54:16;;;;;;;11.35;8.73;;;;;;;11.65;60.63;95698.91;6216843;23;20025;-80
2022/11/15 18:56:45;;;;;;;13.02;9.25;;;;;;;11.66;60.41;95694.50;6213959;23;20012;-80
2022/11/15 18:59:15;;;;;;;12.30;8.52;;;;;;;11.64;60.38;95693.91;6213724;23;20413;-80
2022/11/15 19:01:46;;;;;;;11.75;8.48;;;;;;;11.64;60.58;95693.91;6214192;23;20027;-80